createdAt,value
2018-04-17T00:00:54.796Z,99.90
2018-04-17T00:03:22.472Z,99.90
2018-04-17T00:05:50.968Z,99.90
2018-04-17T00:08:19.380Z,99.90
2018-04-17T00:10:47.079Z,99.90
2018-04-17T00:13:14.760Z,99.90
2018-04-17T00:15:43.907Z,99.90
2018-04-17T00:18:11.660Z,99.90
2018-04-17T00:20:39.367Z,99.90
2018-04-17T00:23:07.043Z,99.90
2018-04-17T00:25:34.760Z,99.90
2018-04-17T00:28:02.449Z,99.90
2018-04-17T00:30:31.560Z,99.90
2018-04-17T00:32:59.265Z,99.90
2018-04-17T00:35:26.951Z,99.90
2018-04-17T00:37:55.455Z,99.90
2018-04-17T00:40:23.174Z,99.90
2018-04-17T00:42:50.880Z,99.90
2018-04-17T00:45:18.758Z,99.90
2018-04-17T00:47:46.488Z,99.90
2018-04-17T00:50:14.186Z,99.90
2018-04-17T00:52:42.070Z,99.90
2018-04-17T00:55:09.808Z,99.90
2018-04-17T00:57:38.277Z,99.90
2018-04-17T01:00:06.158Z,99.90
2018-04-17T01:02:34.796Z,99.90
2018-04-17T01:05:02.498Z,99.90
2018-04-17T01:07:30.880Z,99.90
2018-04-17T01:09:58.895Z,99.90
2018-04-17T01:12:27.374Z,99.90
2018-04-17T01:14:55.819Z,99.90
2018-04-17T01:17:23.561Z,99.90
2018-04-17T01:19:51.583Z,99.90
2018-04-17T01:22:20.603Z,99.90
2018-04-17T01:24:49.081Z,99.90
2018-04-17T01:27:16.836Z,99.90
2018-04-17T01:29:45.293Z,99.90
2018-04-17T01:32:13.788Z,99.90
2018-04-17T01:34:42.386Z,99.90
2018-04-17T01:37:10.083Z,99.90
2018-04-17T01:39:39.177Z,99.90
2018-04-17T01:42:06.947Z,99.90
2018-04-17T01:44:34.669Z,99.90
2018-04-17T01:47:02.376Z,99.90
2018-04-17T01:49:30.845Z,99.90
2018-04-17T01:51:58.576Z,99.90
2018-04-17T01:54:26.468Z,99.90
2018-04-17T01:56:55.062Z,99.90
2018-04-17T01:59:22.814Z,99.90
2018-04-17T02:01:50.604Z,99.90
2018-04-17T02:04:19.085Z,99.90
2018-04-17T02:06:46.805Z,99.90
2018-04-17T02:09:15.286Z,99.90
2018-04-17T02:11:43.804Z,99.90
2018-04-17T02:14:11.476Z,99.90
2018-04-17T02:16:39.151Z,99.90
2018-04-17T02:19:06.954Z,99.90
2018-04-17T02:21:36.195Z,99.90
2018-04-17T02:24:03.908Z,99.90
2018-04-17T02:26:32.446Z,99.90
2018-04-17T02:29:01.523Z,99.90
2018-04-17T02:31:29.306Z,99.90
2018-04-17T02:33:57.778Z,99.90
2018-04-17T02:36:25.471Z,99.90
2018-04-17T02:38:53.187Z,99.90
2018-04-17T02:41:20.929Z,99.90
2018-04-17T02:43:48.629Z,99.90
2018-04-17T02:46:16.306Z,99.90
2018-04-17T02:48:44.813Z,99.90
2018-04-17T02:51:13.286Z,99.90
2018-04-17T02:53:41.121Z,99.90
2018-04-17T02:56:08.812Z,99.90
2018-04-17T02:58:36.525Z,99.90
2018-04-17T03:01:04.269Z,99.90
2018-04-17T03:03:32.761Z,99.90
2018-04-17T03:06:01.258Z,99.90
2018-04-17T03:08:29.007Z,99.90
2018-04-17T03:10:56.741Z,99.90
2018-04-17T03:13:25.303Z,99.90
2018-04-17T03:15:53.054Z,99.90
2018-04-17T03:18:20.783Z,99.90
2018-04-17T03:20:48.493Z,99.90
2018-04-17T03:23:16.193Z,99.90
2018-04-17T03:25:43.898Z,99.90
2018-04-17T03:28:12.400Z,99.90
2018-04-17T03:30:40.881Z,99.90
2018-04-17T03:33:08.599Z,99.90
2018-04-17T03:35:36.379Z,99.90
2018-04-17T03:38:04.120Z,99.90
2018-04-17T03:40:31.808Z,99.90
2018-04-17T03:42:59.636Z,99.90
2018-04-17T03:45:28.117Z,99.90
2018-04-17T03:47:56.599Z,99.90
2018-04-17T03:50:25.055Z,99.90
2018-04-17T03:52:52.786Z,99.90
2018-04-17T03:55:20.501Z,99.90
2018-04-17T03:57:49.287Z,99.90
2018-04-17T04:00:17.836Z,99.90
2018-04-17T04:02:45.683Z,99.90
2018-04-17T04:05:13.445Z,99.90
2018-04-17T04:07:41.928Z,99.90
2018-04-17T04:10:09.688Z,99.90
2018-04-17T04:12:38.969Z,99.90
2018-04-17T04:15:07.234Z,99.90
2018-04-17T04:17:46.981Z,99.90
2018-04-17T04:20:26.656Z,99.90
2018-04-17T04:23:06.238Z,99.90
2018-04-17T04:26:09.628Z,99.90
2018-04-17T04:28:37.328Z,99.90
2018-04-17T04:31:05.020Z,99.90
2018-04-17T04:33:32.720Z,99.90
2018-04-17T04:36:00.515Z,99.90
2018-04-17T04:38:28.217Z,99.90
2018-04-17T04:40:55.909Z,99.90
2018-04-17T04:43:23.632Z,99.90
2018-04-17T04:45:51.396Z,99.90
2018-04-17T04:48:19.107Z,99.90
2018-04-17T04:50:46.867Z,99.90
2018-04-17T04:53:14.732Z,99.90
2018-04-17T04:55:43.313Z,99.90
2018-04-17T04:58:11.848Z,99.90
2018-04-17T05:00:40.854Z,99.90
2018-04-17T05:03:09.081Z,99.90
2018-04-17T05:05:38.444Z,99.90
2018-04-17T05:08:06.162Z,99.90
2018-04-17T05:10:34.746Z,99.90
2018-04-17T05:13:02.427Z,99.90
2018-04-17T05:15:31.233Z,99.90
2018-04-17T05:17:58.976Z,99.90
2018-04-17T05:20:27.460Z,99.90
2018-04-17T05:22:56.702Z,99.90
2018-04-17T05:25:24.406Z,99.90
2018-04-17T05:27:52.113Z,99.90
2018-04-17T05:30:20.609Z,99.90
2018-04-17T05:32:49.351Z,99.90
2018-04-17T05:35:17.038Z,99.90
2018-04-17T05:37:45.230Z,99.90
2018-04-17T05:40:14.848Z,99.90
2018-04-17T05:42:43.284Z,99.90
2018-04-17T05:45:10.943Z,99.90
2018-04-17T05:47:38.609Z,99.90
2018-04-17T05:50:06.249Z,99.90
2018-04-17T05:52:33.959Z,99.90
2018-04-17T05:55:01.623Z,99.90
2018-04-17T05:57:29.725Z,99.90
2018-04-17T05:59:58.137Z,99.90
2018-04-17T06:02:26.510Z,99.90
2018-04-17T06:04:54.918Z,99.90
2018-04-17T06:07:22.635Z,99.90
2018-04-17T06:09:51.763Z,99.90
2018-04-17T06:12:20.256Z,99.90
2018-04-17T06:14:48.991Z,99.90
2018-04-17T06:17:16.610Z,99.90
2018-04-17T06:19:45.711Z,99.90
2018-04-17T06:22:14.447Z,99.90
2018-04-17T06:24:42.158Z,99.90
2018-04-17T06:27:09.840Z,99.90
2018-04-17T06:29:37.517Z,99.90
2018-04-17T06:32:05.166Z,99.90
2018-04-17T06:34:33.561Z,99.90
2018-04-17T06:37:01.970Z,99.90
2018-04-17T06:39:30.377Z,99.90
2018-04-17T06:41:58.021Z,99.90
2018-04-17T06:44:26.532Z,99.90
2018-04-17T06:46:54.172Z,99.90
2018-04-17T06:49:21.821Z,99.90
2018-04-17T06:51:49.452Z,99.90
2018-04-17T06:54:17.139Z,99.90
2018-04-17T06:56:45.541Z,99.90
2018-04-17T06:59:13.960Z,99.90
2018-04-17T07:01:41.588Z,99.90
2018-04-17T07:04:10.018Z,99.90
2018-04-17T07:06:37.698Z,99.90
2018-04-17T07:09:06.301Z,99.90
2018-04-17T07:11:34.069Z,99.90
2018-04-17T07:14:01.725Z,99.90
2018-04-17T07:16:29.411Z,99.90
2018-04-17T07:18:57.867Z,99.90
2018-04-17T07:21:25.527Z,99.90
2018-04-17T07:23:53.214Z,99.90
2018-04-17T07:26:20.900Z,99.90
2018-04-17T07:28:49.349Z,99.90
2018-04-17T07:31:17.043Z,99.90
2018-04-17T07:33:44.684Z,99.90
2018-04-17T07:36:13.135Z,99.90
2018-04-17T07:38:40.811Z,99.90
2018-04-17T07:41:08.478Z,99.90
2018-04-17T07:43:36.215Z,99.90
2018-04-17T07:46:05.493Z,99.90
2018-04-17T07:48:44.250Z,99.90
2018-04-17T07:51:11.933Z,99.90
2018-04-17T07:53:39.579Z,99.90
2018-04-17T07:56:07.994Z,99.90
2018-04-17T07:58:35.849Z,99.90
2018-04-17T08:01:03.501Z,99.90
2018-04-17T08:03:31.925Z,99.90
2018-04-17T08:05:59.545Z,99.90
2018-04-17T08:08:27.980Z,99.90
2018-04-17T08:10:55.596Z,99.90
2018-04-17T08:13:24.069Z,99.90
2018-04-17T08:15:51.751Z,99.90
2018-04-17T08:18:20.142Z,99.90
2018-04-17T08:20:48.145Z,99.90
2018-04-17T08:23:15.757Z,99.90
2018-04-17T08:25:43.926Z,99.90
2018-04-17T08:28:11.572Z,99.90
2018-04-17T08:30:39.257Z,99.90
2018-04-17T08:33:10.811Z,99.90
2018-04-17T08:35:38.567Z,99.90
2018-04-17T08:38:07.052Z,99.90
2018-04-17T08:40:34.739Z,99.90
2018-04-17T08:43:03.148Z,99.90
2018-04-17T08:45:31.307Z,99.90
2018-04-17T08:47:58.970Z,99.90
2018-04-17T08:50:27.433Z,99.90
2018-04-17T08:52:55.057Z,99.90
2018-04-17T08:55:22.766Z,99.90
2018-04-17T08:57:50.436Z,99.90
2018-04-17T09:00:18.857Z,99.00
2018-04-17T09:02:48.060Z,98.00
2018-04-17T09:05:16.461Z,97.80
2018-04-17T09:07:44.082Z,97.80
2018-04-17T09:10:12.138Z,96.80
2018-04-17T09:12:39.771Z,95.70
2018-04-17T09:15:08.197Z,96.70
2018-04-17T09:17:35.812Z,95.90
2018-04-17T09:20:04.345Z,94.00
2018-04-17T09:22:32.005Z,93.70
2018-04-17T09:24:59.863Z,96.10
2018-04-17T09:27:28.815Z,94.80
2018-04-17T09:29:57.226Z,94.30
2018-04-17T09:32:24.906Z,94.40
2018-04-17T09:34:52.548Z,95.00
2018-04-17T09:37:20.975Z,89.10
2018-04-17T09:39:48.635Z,89.80
2018-04-17T09:42:16.323Z,85.50
2018-04-17T09:44:43.961Z,82.20
2018-04-17T09:47:11.652Z,93.60
2018-04-17T09:49:39.300Z,91.90
2018-04-17T09:52:07.728Z,84.80
2018-04-17T09:54:35.364Z,88.70
2018-04-17T09:57:02.966Z,87.20
2018-04-17T09:59:31.502Z,93.90
2018-04-17T10:01:59.146Z,93.60
2018-04-17T10:04:26.796Z,71.70
2018-04-17T10:06:56.184Z,70.20
2018-04-17T10:09:23.852Z,70.50
2018-04-17T10:11:51.450Z,78.70
2018-04-17T10:14:19.835Z,71.70
2018-04-17T10:16:48.271Z,70.90
2018-04-17T10:19:15.886Z,71.40
2018-04-17T10:21:44.959Z,66.40
2018-04-17T10:24:12.623Z,68.00
2018-04-17T10:26:40.445Z,62.90
2018-04-17T10:29:08.074Z,61.50
2018-04-17T10:31:35.729Z,65.70
2018-04-17T10:34:03.444Z,62.70
2018-04-17T10:36:31.104Z,64.30
2018-04-17T10:38:58.841Z,56.20
2018-04-17T10:41:27.278Z,64.10
2018-04-17T10:43:54.929Z,64.20
2018-04-17T10:46:22.811Z,66.50
2018-04-17T10:48:50.445Z,57.60
2018-04-17T10:51:18.881Z,61.20
2018-04-17T10:53:46.757Z,61.60
2018-04-17T10:56:14.397Z,61.00
2018-04-17T10:58:42.070Z,60.30
2018-04-17T11:01:09.732Z,60.00
2018-04-17T11:03:37.476Z,59.90
2018-04-17T11:06:05.161Z,61.20
2018-04-17T11:08:32.781Z,53.00
2018-04-17T11:11:00.416Z,56.10
2018-04-17T11:13:28.044Z,57.90
2018-04-17T11:15:56.766Z,54.50
2018-04-17T11:18:24.430Z,54.50
2018-04-17T11:20:52.107Z,56.80
2018-04-17T11:23:19.782Z,55.70
2018-04-17T11:25:47.447Z,61.30
2018-04-17T11:28:15.683Z,54.30
2018-04-17T11:30:43.309Z,54.40
2018-04-17T11:33:10.954Z,56.60
2018-04-17T11:35:38.612Z,53.40
2018-04-17T11:38:06.683Z,53.70
2018-04-17T11:40:34.442Z,57.40
2018-04-17T11:43:02.141Z,55.90
2018-04-17T11:45:29.751Z,56.30
2018-04-17T11:47:58.205Z,55.10
2018-04-17T11:50:25.824Z,55.10
2018-04-17T11:52:53.533Z,54.00
2018-04-17T11:55:21.289Z,55.40
2018-04-17T11:57:49.394Z,54.40
2018-04-17T12:00:17.881Z,56.30
2018-04-17T12:02:45.589Z,58.50
2018-04-17T12:05:13.208Z,60.70
2018-04-17T12:07:41.661Z,57.70
2018-04-17T12:10:09.303Z,57.60
2018-04-17T12:12:37.717Z,56.80
2018-04-17T12:15:05.352Z,56.80
2018-04-17T12:17:33.780Z,56.70
2018-04-17T12:20:02.394Z,56.40
2018-04-17T12:22:30.004Z,58.40
2018-04-17T12:24:58.285Z,57.60
2018-04-17T12:27:25.942Z,57.90
2018-04-17T12:29:54.460Z,59.20
2018-04-17T12:32:22.208Z,72.80
2018-04-17T12:34:49.888Z,63.40
2018-04-17T12:37:17.509Z,58.90
2018-04-17T12:39:45.962Z,59.30
2018-04-17T12:42:13.560Z,59.40
2018-04-17T12:44:41.795Z,58.20
2018-04-17T12:47:09.487Z,58.90
2018-04-17T12:49:37.367Z,64.50
2018-04-17T12:52:05.018Z,62.20
2018-04-17T12:54:32.700Z,64.50
2018-04-17T12:57:00.344Z,62.50
2018-04-17T12:59:28.717Z,60.80
2018-04-17T13:01:56.385Z,61.10
2018-04-17T13:04:24.122Z,59.50
2018-04-17T13:06:51.745Z,57.20
2018-04-17T13:09:19.363Z,55.10
2018-04-17T13:11:47.065Z,55.70
2018-04-17T13:14:15.296Z,58.70
2018-04-17T13:16:42.975Z,57.80
2018-04-17T13:19:10.616Z,54.80
2018-04-17T13:21:38.297Z,60.60
2018-04-17T13:24:07.012Z,55.10
2018-04-17T13:26:34.687Z,55.90
2018-04-17T13:29:02.365Z,55.10
2018-04-17T13:31:30.047Z,55.70
2018-04-17T13:33:58.267Z,56.50
2018-04-17T13:36:27.023Z,55.10
2018-04-17T13:38:54.653Z,54.70
2018-04-17T13:41:22.279Z,54.80
2018-04-17T13:43:49.885Z,51.80
2018-04-17T13:46:17.548Z,55.50
2018-04-17T13:48:45.166Z,55.50
2018-04-17T13:51:14.339Z,59.40
2018-04-17T13:53:42.784Z,55.90
2018-04-17T13:56:10.444Z,55.90
2018-04-17T13:58:38.248Z,54.70
2018-04-17T14:01:05.900Z,57.20
2018-04-17T14:03:33.554Z,55.30
2018-04-17T14:06:01.321Z,58.60
2018-04-17T14:08:28.986Z,55.90
2018-04-17T14:10:56.616Z,52.60
2018-04-17T14:13:25.066Z,55.20
2018-04-17T14:15:52.720Z,54.90
2018-04-17T14:18:20.369Z,51.30
2018-04-17T14:20:48.033Z,51.40
2018-04-17T14:23:15.638Z,52.50
2018-04-17T14:25:44.792Z,53.60
2018-04-17T14:28:12.440Z,51.70
2018-04-17T14:30:40.827Z,54.00
2018-04-17T14:33:09.286Z,51.60
2018-04-17T14:35:36.941Z,51.60
2018-04-17T14:38:04.661Z,51.10
2018-04-17T14:40:32.281Z,52.10
2018-04-17T14:42:59.961Z,53.00
2018-04-17T14:45:27.606Z,54.70
2018-04-17T14:47:55.279Z,52.20
2018-04-17T14:50:22.908Z,53.50
2018-04-17T14:52:50.573Z,52.40
2018-04-17T14:55:18.188Z,52.80
2018-04-17T14:57:45.896Z,58.70
2018-04-17T15:00:13.605Z,57.50
2018-04-17T15:02:41.263Z,53.60
2018-04-17T15:05:08.978Z,54.20
2018-04-17T15:07:37.449Z,58.20
2018-04-17T15:10:05.120Z,58.30
2018-04-17T15:12:32.741Z,56.00
2018-04-17T15:15:02.281Z,57.20
2018-04-17T15:17:30.252Z,57.10
2018-04-17T15:19:58.461Z,56.50
2018-04-17T15:22:26.892Z,58.40
2018-04-17T15:24:54.552Z,58.50
2018-04-17T15:27:22.232Z,60.00
2018-04-17T15:29:49.998Z,59.20
2018-04-17T15:32:17.696Z,59.40
2018-04-17T15:34:45.681Z,59.70
2018-04-17T15:37:13.382Z,64.50
2018-04-17T15:39:41.208Z,66.20
2018-04-17T15:42:09.283Z,67.10
2018-04-17T15:44:36.901Z,66.30
2018-04-17T15:47:04.564Z,68.40
2018-04-17T15:49:33.142Z,71.30
2018-04-17T15:52:01.625Z,75.30
2018-04-17T15:54:30.055Z,76.80
2018-04-17T15:56:57.734Z,76.80
2018-04-17T15:59:25.431Z,72.50
2018-04-17T16:01:53.812Z,73.10
2018-04-17T16:04:22.259Z,77.60
2018-04-17T16:06:50.881Z,77.20
2018-04-17T16:09:19.323Z,78.20
2018-04-17T16:11:47.832Z,78.20
2018-04-17T16:14:15.810Z,80.00
2018-04-17T16:16:43.491Z,86.20
2018-04-17T16:19:12.068Z,84.20
2018-04-17T16:21:40.545Z,87.80
2018-04-17T16:24:08.500Z,89.10
2018-04-17T16:26:36.156Z,85.10
2018-04-17T16:29:04.380Z,89.60
2018-04-17T16:31:32.309Z,86.10
2018-04-17T16:33:59.988Z,89.10
2018-04-17T16:36:27.650Z,92.40
2018-04-17T16:38:55.303Z,91.20
2018-04-17T16:41:26.989Z,90.70
2018-04-17T16:43:54.700Z,91.00
2018-04-17T16:46:22.344Z,93.90
2018-04-17T16:48:49.999Z,99.50
2018-04-17T16:51:18.525Z,98.90
2018-04-17T16:53:46.985Z,99.90
2018-04-17T16:56:14.630Z,99.90
2018-04-17T16:58:42.973Z,99.60
2018-04-17T17:01:10.644Z,99.90
2018-04-17T17:03:38.336Z,99.90
2018-04-17T17:06:07.258Z,99.90
2018-04-17T17:08:34.904Z,99.90
2018-04-17T17:11:03.354Z,99.90
2018-04-17T17:13:31.269Z,99.90
2018-04-17T17:15:58.911Z,99.90
2018-04-17T17:18:26.563Z,99.90
2018-04-17T17:20:54.262Z,99.90
2018-04-17T17:23:21.969Z,99.90
2018-04-17T17:25:50.396Z,99.90
2018-04-17T17:28:18.130Z,99.90
2018-04-17T17:30:45.834Z,99.90
2018-04-17T17:33:13.504Z,99.90
2018-04-17T17:35:41.208Z,99.90
2018-04-17T17:38:08.904Z,99.90
2018-04-17T17:40:36.770Z,99.90
2018-04-17T17:43:04.440Z,99.90
2018-04-17T17:45:33.207Z,99.90
2018-04-17T17:48:00.934Z,99.90
2018-04-17T17:50:30.184Z,99.90
2018-04-17T17:52:58.722Z,99.90
2018-04-17T17:55:27.141Z,99.90
2018-04-17T17:57:57.469Z,99.90
2018-04-17T18:00:25.247Z,99.90
2018-04-17T18:02:53.735Z,99.90
2018-04-17T18:05:22.205Z,99.90
2018-04-17T18:07:49.933Z,99.90
2018-04-17T18:10:17.597Z,99.90
2018-04-17T18:12:45.743Z,99.90
2018-04-17T18:15:14.539Z,99.90
2018-04-17T18:17:42.241Z,99.90
2018-04-17T18:20:10.408Z,99.90
2018-04-17T18:22:38.169Z,99.90
2018-04-17T18:25:05.959Z,99.90
2018-04-17T18:27:33.685Z,99.90
2018-04-17T18:30:02.175Z,99.90
2018-04-17T18:32:30.689Z,99.90
2018-04-17T18:34:58.369Z,99.90
2018-04-17T18:37:27.013Z,99.90
2018-04-17T18:39:54.692Z,99.90
2018-04-17T18:42:23.766Z,99.90
2018-04-17T18:44:51.421Z,99.90
2018-04-17T18:47:20.654Z,99.90
2018-04-17T18:49:48.321Z,99.90
2018-04-17T18:52:16.797Z,99.90
2018-04-17T18:54:45.325Z,99.90
2018-04-17T18:57:13.086Z,99.90
2018-04-17T18:59:41.699Z,99.90
2018-04-17T19:02:10.128Z,99.90
2018-04-17T19:04:38.301Z,99.90
2018-04-17T19:07:06.816Z,99.90
2018-04-17T19:09:34.676Z,99.90
2018-04-17T19:12:02.341Z,99.90
2018-04-17T19:14:30.047Z,99.90
2018-04-17T19:16:58.327Z,99.90
2018-04-17T19:19:27.036Z,99.90
2018-04-17T19:21:54.733Z,99.90
2018-04-17T19:24:23.047Z,99.90
2018-04-17T19:26:51.545Z,99.90
2018-04-17T19:29:22.456Z,99.90
2018-04-17T19:31:50.878Z,99.90
2018-04-17T19:34:20.821Z,99.90
2018-04-17T19:36:50.241Z,99.90
2018-04-17T19:39:18.645Z,99.90
2018-04-17T19:41:46.286Z,99.90
2018-04-17T19:44:14.049Z,99.90
2018-04-17T19:46:41.758Z,99.90
2018-04-17T19:49:09.567Z,99.90
2018-04-17T19:51:40.538Z,99.90
2018-04-17T19:54:08.193Z,99.90
2018-04-17T19:56:35.888Z,99.90
2018-04-17T19:59:04.696Z,99.90
2018-04-17T20:01:32.563Z,99.90
2018-04-17T20:04:00.303Z,99.90
2018-04-17T20:06:28.784Z,99.90
2018-04-17T20:08:56.551Z,99.90
2018-04-17T20:11:25.095Z,99.90
2018-04-17T20:13:52.853Z,99.90
2018-04-17T20:16:20.515Z,99.90
2018-04-17T20:18:48.353Z,99.90
2018-04-17T20:21:16.090Z,99.90
2018-04-17T20:23:43.779Z,99.90
2018-04-17T20:26:11.812Z,99.90
2018-04-17T20:28:39.486Z,99.90
2018-04-17T20:31:07.202Z,99.90
2018-04-17T20:33:34.918Z,99.90
2018-04-17T20:36:02.661Z,99.90
2018-04-17T20:38:30.340Z,99.90
2018-04-17T20:40:58.068Z,99.90
2018-04-17T20:43:25.714Z,99.90
2018-04-17T20:45:54.380Z,99.90
2018-04-17T20:48:22.059Z,99.90
2018-04-17T20:50:50.268Z,99.90
2018-04-17T20:53:17.925Z,99.90
2018-04-17T20:55:45.576Z,99.90
2018-04-17T20:58:13.308Z,99.90
2018-04-17T21:00:41.071Z,99.90
2018-04-17T21:03:08.828Z,99.90
2018-04-17T21:05:36.512Z,99.90
2018-04-17T21:08:05.003Z,99.90
2018-04-17T21:10:33.387Z,99.90
2018-04-17T21:13:01.045Z,99.90
2018-04-17T21:15:28.729Z,99.90
2018-04-17T21:17:56.378Z,99.90
2018-04-17T21:20:24.083Z,99.90
2018-04-17T21:22:51.801Z,99.90
2018-04-17T21:25:19.493Z,99.90
2018-04-17T21:27:47.939Z,99.90
2018-04-17T21:30:15.675Z,99.90
2018-04-17T21:32:43.327Z,99.90
2018-04-17T21:35:11.008Z,99.90
2018-04-17T21:37:39.481Z,99.90
2018-04-17T21:40:07.143Z,99.90
2018-04-17T21:42:34.785Z,99.90
2018-04-17T21:45:03.280Z,99.90
2018-04-17T21:47:30.989Z,99.90
2018-04-17T21:49:59.432Z,99.90
2018-04-17T21:52:27.074Z,99.90
2018-04-17T21:54:54.759Z,99.90
2018-04-17T21:57:22.481Z,99.90
2018-04-17T21:59:50.084Z,99.90
2018-04-17T22:02:17.763Z,99.90
2018-04-17T22:04:45.462Z,99.90
2018-04-17T22:07:13.105Z,99.90
2018-04-17T22:09:40.808Z,99.90
2018-04-17T22:12:09.320Z,99.90
2018-04-17T22:14:37.745Z,99.90
2018-04-17T22:17:05.526Z,99.90
2018-04-17T22:19:33.174Z,99.90
2018-04-17T22:22:02.788Z,99.90
2018-04-17T22:24:30.522Z,99.90
2018-04-17T22:26:58.181Z,99.90
2018-04-17T22:29:25.859Z,99.90
2018-04-17T22:31:53.529Z,99.90
2018-04-17T22:34:21.185Z,99.90
2018-04-17T22:36:49.623Z,99.90
2018-04-17T22:39:17.272Z,99.90
2018-04-17T22:41:44.907Z,99.90
2018-04-17T22:44:14.369Z,99.90
2018-04-17T22:46:42.001Z,99.90
2018-04-17T22:49:10.437Z,99.90
2018-04-17T22:51:38.133Z,99.90
2018-04-17T22:54:05.757Z,99.90
2018-04-17T22:56:34.188Z,99.90
2018-04-17T22:59:01.922Z,99.90
2018-04-17T23:01:30.376Z,99.90
2018-04-17T23:03:58.043Z,99.90
2018-04-17T23:06:25.812Z,99.90
2018-04-17T23:08:53.443Z,99.90
2018-04-17T23:11:21.088Z,99.90
2018-04-17T23:13:49.819Z,99.90
2018-04-17T23:16:17.480Z,99.90
2018-04-17T23:18:45.136Z,99.90
2018-04-17T23:21:13.565Z,99.90
2018-04-17T23:23:41.200Z,99.90
2018-04-17T23:26:08.837Z,99.90
2018-04-17T23:28:36.503Z,99.90
2018-04-17T23:31:04.168Z,99.90
2018-04-17T23:33:32.623Z,99.90
2018-04-17T23:36:00.300Z,99.90
2018-04-17T23:38:27.941Z,99.90
2018-04-17T23:40:55.551Z,99.90
2018-04-17T23:43:24.165Z,99.90
2018-04-17T23:45:52.260Z,99.90
2018-04-17T23:48:19.945Z,99.90
2018-04-17T23:50:47.613Z,99.90
2018-04-17T23:53:15.276Z,99.90
2018-04-17T23:55:42.930Z,99.90
2018-04-17T23:58:10.580Z,99.90
